»·PEaware :: UAL1942 KLAX-KDEN

UAL1942 :: KLAX-KDEN

FLIGHT INFORMATION

Flight Status: Arrived
Operator:
United Airlines
More flights by this operator :: More flights under this callsign
Pilot: Thomas C. (28508)
Aircraft: BOEING 777-200
(B772)
More flights by this aircraft type
Origin: KLAX Los Angeles Intl
United States
Destination: KDEN Denver Intl
United States
More flights between these airports :: More routes between these airports
Route: +BYYKE LONGZ1
File this flight plan on PilotEdge
Remarks: PBN / A1B1C1D1L1O1S2 NAV / RNVD1E2A1 DOF / 200417 REG / N77006 EET / KZLC0044 KZDV0058 SEL / EJGS OPR / UAL PER / D RMK / TCAS
Altitude:
(Current/Filed)
39,000ft
Speed:
(Current/Filed)
479kts
Departed: 16-Apr-20 08:04 PM
Arrived: 16-Apr-20 09:53 PM
Distance/Time
Traveled:
747nm/1:49
Distance/Time
To Go:
Arrived

Flight Plot

Page will automatically refresh every two minutes.


Map Options




Map Legend


Flown Route
Filed Route
Departure Airport
Arrival Airport
Navaid (VOR, NDB)
Fix

Horizontal Profiles

Position Reports

Time Latitude Longitude Heading Altitude Ground
Speed
16-Apr-20 19:25 33.940994 -118.398875 305 130ft 0kts
16-Apr-20 19:26 33.940994 -118.398875 305 130ft 0kts
16-Apr-20 19:27 33.940994 -118.398875 305 130ft 0kts
16-Apr-20 19:28 33.940994 -118.398875 305 130ft 0kts
16-Apr-20 19:29 33.940994 -118.398875 305 130ft 0kts
16-Apr-20 19:30 33.940994 -118.398875 305 130ft 0kts
16-Apr-20 19:31 33.940994 -118.398875 305 130ft 0kts
16-Apr-20 19:32 33.940994 -118.398875 305 130ft 0kts
16-Apr-20 19:33 33.940994 -118.398875 305 130ft 0kts
16-Apr-20 19:34 33.940994 -118.398875 305 130ft 0kts
16-Apr-20 19:35 33.940994 -118.398875 305 130ft 0kts
16-Apr-20 19:36 33.940994 -118.398875 305 130ft 0kts
16-Apr-20 19:37 33.940994 -118.398875 305 130ft 0kts
16-Apr-20 19:38 33.940994 -118.398875 305 130ft 0kts
16-Apr-20 19:39 33.940994 -118.398875 305 130ft 0kts
16-Apr-20 19:40 33.940994 -118.398875 305 130ft 0kts
16-Apr-20 19:41 33.940994 -118.398875 305 130ft 0kts
16-Apr-20 19:42 33.940994 -118.398875 305 130ft 0kts
16-Apr-20 19:43 33.940994 -118.398875 305 130ft 0kts
16-Apr-20 19:44 33.940994 -118.398875 305 130ft 0kts
16-Apr-20 19:45 33.940994 -118.398875 305 130ft 0kts
16-Apr-20 19:46 33.940994 -118.398875 305 130ft 0kts
16-Apr-20 19:47 33.940994 -118.398875 305 130ft 0kts
16-Apr-20 19:48 33.940994 -118.398875 305 130ft 0kts
16-Apr-20 19:49 33.940994 -118.398875 305 130ft 0kts
16-Apr-20 19:50 33.940994 -118.398875 305 130ft 0kts
16-Apr-20 19:51 33.940994 -118.398875 305 130ft 0kts
16-Apr-20 19:52 33.940976 -118.398844 305 130ft 0kts
16-Apr-20 19:53 33.940846 -118.398366 232 129ft 2kts
16-Apr-20 19:54 33.941200 -118.398247 152 129ft 1kts
16-Apr-20 19:55 33.941345 -118.398216 197 129ft 0kts
16-Apr-20 19:56 33.941471 -118.398163 198 129ft 0kts
16-Apr-20 19:57 33.941087 -118.398244 183 129ft 7kts
16-Apr-20 19:58 33.939051 -118.397211 86 126ft 14kts
16-Apr-20 19:59 33.939791 -118.390065 82 117ft 27kts
16-Apr-20 20:00 33.940653 -118.381626 83 113ft 17kts
16-Apr-20 20:01 33.940780 -118.380416 83 112ft 0kts
16-Apr-20 20:02 33.940736 -118.380244 127 112ft 4kts
16-Apr-20 20:03 33.938610 -118.392488 262 135ft 141kts
16-Apr-20 20:04 33.932208 -118.454041 259 2847ft 231kts
16-Apr-20 20:05 33.906565 -118.535433 247 5020ft 269kts
16-Apr-20 20:06 33.879290 -118.616680 248 4991ft 261kts
16-Apr-20 20:07 33.835921 -118.680074 178 7229ft 277kts
16-Apr-20 20:08 33.809864 -118.604785 56 11405ft 325kts
16-Apr-20 20:10 33.876579 -118.511798 48 14441ft 400kts
16-Apr-20 20:11 33.949420 -118.404202 55 15933ft 427kts
16-Apr-20 20:12 34.017219 -118.284102 55 20067ft 452kts
16-Apr-20 20:13 34.090926 -118.153935 56 23007ft 475kts
16-Apr-20 20:14 34.165184 -118.022300 56 22992ft 473kts
16-Apr-20 20:15 34.240243 -117.888751 56 25963ft 495kts
16-Apr-20 20:16 34.319386 -117.747401 56 28808ft 518kts
16-Apr-20 20:17 34.404233 -117.601823 53 31447ft 538kts
16-Apr-20 20:18 34.492270 -117.454101 53 35010ft 533kts
16-Apr-20 20:19 34.577485 -117.310505 54 37950ft 529kts
16-Apr-20 20:20 34.663091 -117.165655 54 38902ft 527kts
16-Apr-20 20:21 34.748332 -117.020826 53 38887ft 527kts
16-Apr-20 20:22 34.833476 -116.875566 53 38888ft 527kts
16-Apr-20 20:23 34.918923 -116.730359 50 38887ft 527kts
16-Apr-20 20:24 35.016889 -116.600048 45 38892ft 526kts
16-Apr-20 20:25 35.115346 -116.469994 45 38889ft 526kts
16-Apr-20 20:26 35.205670 -116.350276 45 38889ft 526kts
16-Apr-20 20:27 35.304698 -116.218534 46 38883ft 526kts
16-Apr-20 20:28 35.403828 -116.086139 46 38885ft 526kts
16-Apr-20 20:28 35.485962 -115.976048 46 38899ft 526kts
16-Apr-20 20:29 35.584462 -115.843548 46 38914ft 526kts
16-Apr-20 20:31 35.698682 -115.687836 46 38916ft 526kts
16-Apr-20 20:31 35.780109 -115.575672 46 38917ft 526kts
16-Apr-20 20:32 35.877144 -115.441516 46 38892ft 526kts
16-Apr-20 20:33 35.974718 -115.306093 46 38911ft 526kts
16-Apr-20 20:34 36.071876 -115.170387 48 38888ft 526kts
16-Apr-20 20:35 36.157446 -115.021378 53 38884ft 528kts
16-Apr-20 20:36 36.241298 -114.871637 53 38886ft 529kts
16-Apr-20 20:37 36.324902 -114.721632 53 38888ft 530kts
16-Apr-20 20:38 36.408655 -114.570694 53 38889ft 530kts
16-Apr-20 20:39 36.492341 -114.419207 53 38891ft 531kts
16-Apr-20 20:40 36.575703 -114.267638 54 38938ft 532kts
16-Apr-20 20:41 36.659302 -114.114946 54 38939ft 533kts
16-Apr-20 20:42 36.742432 -113.962432 53 38941ft 534kts
16-Apr-20 20:43 36.825721 -113.808933 53 38943ft 534kts
16-Apr-20 20:44 36.908801 -113.655117 53 38945ft 535kts
16-Apr-20 20:45 36.991982 -113.500409 53 38947ft 536kts
16-Apr-20 20:46 37.074338 -113.346530 54 39048ft 536kts
16-Apr-20 20:47 37.157431 -113.190565 54 39044ft 537kts
16-Apr-20 20:48 37.240467 -113.033972 54 39074ft 537kts
16-Apr-20 20:49 37.322962 -112.877669 54 39049ft 538kts
16-Apr-20 20:50 37.405547 -112.720457 54 39051ft 538kts
16-Apr-20 20:51 37.487830 -112.563077 54 39107ft 539kts
16-Apr-20 20:52 37.569899 -112.405358 53 39109ft 539kts
16-Apr-20 20:53 37.652901 -112.249121 48 39094ft 537kts
16-Apr-20 20:54 37.746421 -112.101320 48 39101ft 537kts
16-Apr-20 20:55 37.839300 -111.951998 48 39103ft 538kts
16-Apr-20 20:56 37.931313 -111.803354 48 39105ft 538kts
16-Apr-20 20:57 38.023848 -111.653179 48 39107ft 538kts
16-Apr-20 20:58 38.114549 -111.505314 48 39187ft 538kts
16-Apr-20 20:59 38.206500 -111.354731 48 39190ft 538kts
16-Apr-20 21:00 38.298464 -111.203415 49 39180ft 538kts
16-Apr-20 21:01 38.389830 -111.052388 49 39182ft 538kts
16-Apr-20 21:02 38.481254 -110.900561 48 39184ft 538kts
16-Apr-20 21:03 38.572651 -110.748064 48 39186ft 538kts
16-Apr-20 21:04 38.663297 -110.596108 48 39188ft 538kts
16-Apr-20 21:05 38.753771 -110.443722 48 39190ft 538kts
16-Apr-20 21:06 38.843488 -110.291920 49 39043ft 538kts
16-Apr-20 21:07 38.933670 -110.138573 49 39047ft 538kts
16-Apr-20 21:08 39.023868 -109.984475 49 39049ft 538kts
16-Apr-20 21:09 39.107847 -109.828164 52 39050ft 540kts
16-Apr-20 21:10 39.191184 -109.667261 52 39051ft 539kts
16-Apr-20 21:11 39.274270 -109.506093 52 39070ft 539kts
16-Apr-20 21:12 39.351071 -109.342584 57 39080ft 541kts
16-Apr-20 21:13 39.423670 -109.172174 58 39161ft 541kts
16-Apr-20 21:14 39.495139 -109.001722 58 39183ft 541kts
16-Apr-20 21:15 39.566653 -108.830173 58 39185ft 541kts
16-Apr-20 21:16 39.638178 -108.657632 58 39188ft 541kts
16-Apr-20 21:17 39.709036 -108.485731 58 39189ft 540kts
16-Apr-20 21:18 39.778294 -108.316795 59 39179ft 541kts
16-Apr-20 21:19 39.848920 -108.143511 59 39181ft 541kts
16-Apr-20 21:20 39.919146 -107.970235 59 39183ft 540kts
16-Apr-20 21:21 39.988801 -107.797382 59 39185ft 540kts
16-Apr-20 21:22 40.058409 -107.623656 59 39188ft 540kts
16-Apr-20 21:23 40.127388 -107.450506 59 39189ft 540kts
16-Apr-20 21:24 40.196054 -107.277157 59 39181ft 540kts
16-Apr-20 21:25 40.264869 -107.102380 59 39181ft 540kts
16-Apr-20 21:26 40.333421 -106.927267 59 39155ft 540kts
16-Apr-20 21:27 40.401517 -106.752292 59 39113ft 540kts
16-Apr-20 21:28 40.467247 -106.574687 64 39121ft 541kts
16-Apr-20 21:29 40.488909 -106.379677 98 37876ft 550kts
16-Apr-20 21:30 40.456765 -106.186006 99 35600ft 554kts
16-Apr-20 21:31 40.438260 -105.982641 98 33148ft 567kts
16-Apr-20 21:32 40.411176 -105.778414 104 30638ft 571kts
16-Apr-20 21:33 40.379381 -105.578386 105 27963ft 539kts
16-Apr-20 21:34 40.349468 -105.398836 110 26036ft 454kts
16-Apr-20 21:35 40.289218 -105.271829 136 23192ft 396kts
16-Apr-20 21:36 40.223823 -105.161369 135 20197ft 371kts
16-Apr-20 21:37 40.161439 -105.056456 134 17243ft 347kts
16-Apr-20 21:38 40.107305 -104.954172 152 14741ft 331kts
16-Apr-20 21:39 40.032519 -104.882766 140 13574ft 322kts
16-Apr-20 21:40 39.962974 -104.809542 175 12679ft 275kts
16-Apr-20 21:41 39.892000 -104.806648 185 11467ft 247kts
16-Apr-20 21:42 39.824444 -104.808075 184 10838ft 236kts
16-Apr-20 21:43 39.757416 -104.807916 180 9776ft 238kts
16-Apr-20 21:44 39.692207 -104.805809 180 8961ft 229kts
16-Apr-20 21:45 39.645240 -104.770506 88 8107ft 224kts
16-Apr-20 21:46 39.651733 -104.700534 54 7937ft 175kts
16-Apr-20 21:47 39.695083 -104.674729 27 6997ft 176kts
16-Apr-20 21:48 39.736822 -104.661905 0 7053ft 162kts
16-Apr-20 21:49 39.778413 -104.661255 359 6431ft 142kts
16-Apr-20 21:50 39.817769 -104.660695 0 5678ft 141kts
16-Apr-20 21:51 39.846656 -104.660442 350 5406ft 45kts
16-Apr-20 21:52 39.853693 -104.662393 1 5401ft 24kts
16-Apr-20 21:53 39.856779 -104.665032 261 5388ft 13kts
16-Apr-20 21:54 39.856616 -104.671313 270 5388ft 17kts
16-Apr-20 21:55 39.858035 -104.672787 0 5388ft 0kts
16-Apr-20 21:56 39.858034 -104.672787 0 5388ft 0kts
16-Apr-20 21:57 39.858034 -104.672787 0 5388ft 0kts
16-Apr-20 21:58 39.858034 -104.672787 0 5388ft 0kts

Navigation Log

Ident Type
Flight plan parsing failed, navigation log unavailable